Ellsworth Air Force Base
KRCA : rendu visible

Aérodrome :











RETROUVEZ-NOUS SUR...

 
LOGIN :

S'inscrire | Disclaimer

   EN    FR    IT 

 









Légende :    VFR   VFR Marginal   IFR   IFR Intensif   IFR Très Intensif
Visi : 
Plafond : 
>= 8 km
>= 3000ft
5 à 8 km
1000 à 3000 ft
1500m à 5 km
500 à 1000 ft
800 à 1500m
200 à 500 ft
< 800m
< 200 ft
Symboles :   Orages  Brouillard  Fortes neiges  Fortes précipitations  Vent > 20 kt






- Altitude de l'aérodrome : 3276 ft


KRCA - Ellsworth Air Force Base

DERNIER METAR :
  • 212156Z AUTO 33017G21KT 10SM CLR 09/M03 A2993 RMK AO2 PK WND 32027/07 SLP154 T00871032 $

METARs EXPIRÉS :
  • 212056Z AUTO 33017G23KT 10SM CLR 09/M02 A2992 RMK AO2 PK WND 30027/24 SLP147 T00911025 50009 $
  • 211956Z AUTO 33020G25KT 10SM FEW047 09/M01 A2991 RMK AO2 PK WND 33026/16 SLP144 T00901014 $

TAF TAF KRCA
Valide du 21 à 19h jusqu'au 23 à 01h UTC


211900Z 2119/2301 34015G25KT 9999 FEW045 510001 QNH2991INS
BECMG 2123/2124 31006KT 9999 SCT030 QNH2997INS
BECMG 2217/2218 30020G25KT 9999 FEW080 510001 QNH2991INS
BECMG 2223/2224 VRB06KT 9999 SCT030 QNH2986INS TX09/2121Z TN00/2211Z



MET'MAP, la Météo Aéronautique d'un coup d'oeil ! - Copyright ORBIFLY Décembre 2007 - Disclaimer

ORBIFLY MET'MAP TEAM :

Programmation & Développement : Alexandra Zaïnal
Conception & Développement : Baudouin d'Aumeries
Co-Programmation & Développement : Marc-Olivier Méhu
Soutien technique & logistique : Manuel Goepfert

Contact : metmap@orbifly.com




SOURCES & CREDITS :

   NOAA       Earth
Advisory